Anchorage, AK (99502)

11:56 PM AKDT on September 18, 2014 (GMT -0800)
KL7YK | Change Station
CLOSE
Current Station
Personal Weather Station
Location: Anchorage, AK
Elevation: 105 ft
Nearby Weather Stations

Elev 105 ft 61.15 °N, 149.90 °W | Updated 17 seconds ago

Overcast
Overcast
49.3 °F
Feels Like 49 °F
N
1.4
Wind Variable Wind from WSW
Gusts 5.4 mph

Today
High -- | Low -- °F
--% Chance of Precip.
Yesterday
High -- | Low -- °F
Precip. -- in
7:34 AM 8:11 PM
Waning Crescent, 21% visible
Pressure 29.04 in
Visibility 10.0 miles
Clouds Overcast 600 ft
Windchill 49 °F
Dew Point 49 °F
Humidity 100%
Rainfall 0.07 in
Snow Depth 2 in , 1 in , 0 in
UV 0 out of 12
Pollen Not available.
Air Quality Not available.
Flu Activity Not available.
METAR PALH 190653Z 35003KT 10SM OVC006 10/08 A2903 RMK AO2 RAE12 SLP832 P0000 T01000083

More Conditions Fewer Conditions

Pressure 29.04 in
Visibility 10.0 miles
Clouds Overcast 600 ft
Windchill 49 °F
Dew Point 49 °F
Humidity 100%
Rainfall 0.07 in
Snow Depth 2 in , 1 in , 0 in
UV 0 out of 12
Pollen Not available.
Air Quality Not available.
Flu Activity Not available.
METAR PALH 190653Z 35003KT 10SM OVC006 10/08 A2903 RMK AO2 RAE12 SLP832 P0000 T01000083

More Conditions Fewer Conditions

10-Day Weather Forecast

Almanac

Astronomy

Sep. 18, 2014 Rise Set
Actual Time 7:34 AM AKDT 8:11 PM AKDT
Civil Twilight 6:50 AM AKDT 8:55 PM AKDT
Nautical Twilight 5:57 AM AKDT 9:48 PM AKDT
Astronomical Twilight 4:57 AM AKDT 10:47 PM AKDT
Moon 1:29 AM AKDT (9/18) 6:07 PM AKDT (9/18)
Length of Visible Light 14h 04m
Length of Day
12h 37m
Tomorrow will be 5m 39s shorter.
Waning Crescent, 21% of the Moon is Illuminated
Sep 19
Waning Crescent
Sep 24
New
Oct 1
First Quarter
Oct 8
Full
Oct 15
Last Quarter

Community

WunderPhotos

Upload Photos

1,754,578 photos uploaded!

Nearby

Snow Depth

Station Depth Elevation
Indian Pass 2 in 2300 ft
Munson Ridge 1 in 3100 ft
Summit Creek 0 in 1400 ft
Port Graham 0 in 300 ft
Turnagain Pass 2 in 1880 ft

Earthquake Activity

City Distance Mag. Time & Date
No recent earthquake activity has been reported nearby.
Minimum magnitude displayed is 2.5.

Coastal Water Temperatures

Place Temperature
No Stations Reporting

Nearby Weather Stations